THY072 GOBD-GABS
Flight info
| Callsign | THY072 |
|---|---|
| Flight time | N/A |
| Altitude | 41000 |
| Route | NURAS1B NURAS DCT SISNU UA601 PINVO DCT BIDOK BIDOK5D |
| Aircraft | A343/H-SDE2E3FGHIJ4J5M1RWXY/LB1D1 |
Departure
| Time | 2026-05-08 23:08 |
|---|---|
| Airport | Blaise Diagne International Airport (GOBD) |
Arrival
| Time | N/A |
|---|---|
| Airport | Modibo Keita International Airport (GABS) |
| Time | Latitude | Longitude | Altitude | Speed | Heading |
|---|---|---|---|---|---|
| 2026-05-08 22:37 | 14.66985 | -17.06839 | 299 ft | 0 kts | 62° |
| 2026-05-08 22:54 | 14.66980 | -17.06847 | 300 ft | 2 kts | 62° |
| 2026-05-08 22:55 | 14.66973 | -17.06862 | 301 ft | 2 kts | 62° |
| 2026-05-08 22:55 | 14.66965 | -17.06877 | 300 ft | 2 kts | 62° |
| 2026-05-08 22:55 | 14.66957 | -17.06891 | 299 ft | 2 kts | 62° |
| 2026-05-08 22:55 | 14.66950 | -17.06906 | 301 ft | 2 kts | 62° |
| 2026-05-08 22:56 | 14.66942 | -17.06921 | 299 ft | 2 kts | 62° |
| 2026-05-08 22:56 | 14.66934 | -17.06936 | 300 ft | 2 kts | 62° |
| 2026-05-08 22:56 | 14.66927 | -17.06950 | 301 ft | 2 kts | 62° |
| 2026-05-08 22:56 | 14.66919 | -17.06965 | 301 ft | 2 kts | 62° |
| 2026-05-08 22:57 | 14.66911 | -17.06979 | 301 ft | 2 kts | 61° |
| 2026-05-08 22:57 | 14.66904 | -17.06994 | 301 ft | 2 kts | 61° |
| 2026-05-08 22:57 | 14.66896 | -17.07009 | 300 ft | 2 kts | 61° |
| 2026-05-08 22:57 | 14.66901 | -17.06999 | 300 ft | 2 kts | 61° |
| 2026-05-08 22:58 | 14.66909 | -17.06984 | 301 ft | 2 kts | 61° |
| 2026-05-08 22:58 | 14.66925 | -17.06981 | 301 ft | 2 kts | 1° |
| 2026-05-08 22:58 | 14.66927 | -17.06981 | 301 ft | 0 kts | 5° |
| 2026-05-08 23:00 | 14.66959 | -17.06978 | 299 ft | 11 kts | 5° |
| 2026-05-08 23:01 | 14.67054 | -17.06980 | 298 ft | 15 kts | 351° |
| 2026-05-08 23:01 | 14.67066 | -17.06983 | 298 ft | 0 kts | 347° |
| 2026-05-08 23:01 | 14.67075 | -17.06998 | 300 ft | 7 kts | 297° |
| 2026-05-08 23:02 | 14.67062 | -17.07077 | 303 ft | 11 kts | 236° |
| 2026-05-08 23:02 | 14.66984 | -17.07092 | 302 ft | 18 kts | 177° |
| 2026-05-08 23:02 | 14.66813 | -17.07089 | 302 ft | 31 kts | 179° |
| 2026-05-08 23:02 | 14.66574 | -17.07086 | 297 ft | 35 kts | 179° |
| 2026-05-08 23:03 | 14.66330 | -17.07084 | 299 ft | 35 kts | 180° |
| 2026-05-08 23:03 | 14.66090 | -17.07081 | 296 ft | 35 kts | 180° |
| 2026-05-08 23:03 | 14.65848 | -17.07080 | 289 ft | 35 kts | 179° |
| 2026-05-08 23:03 | 14.65700 | -17.07078 | 286 ft | 10 kts | 180° |
| 2026-05-08 23:05 | 14.65693 | -17.07078 | 286 ft | 10 kts | 180° |
| 2026-05-08 23:05 | 14.65685 | -17.07078 | 286 ft | 2 kts | 180° |
| 2026-05-08 23:05 | 14.65662 | -17.07078 | 285 ft | 5 kts | 180° |
| 2026-05-08 23:05 | 14.65607 | -17.07078 | 284 ft | 11 kts | 180° |
| 2026-05-08 23:06 | 14.65553 | -17.07091 | 282 ft | 12 kts | 215° |
| 2026-05-08 23:06 | 14.65533 | -17.07140 | 282 ft | 0 kts | 262° |
| 2026-05-08 23:06 | 14.65529 | -17.07211 | 282 ft | 20 kts | 275° |
| 2026-05-08 23:06 | 14.65583 | -17.07268 | 283 ft | 5 kts | 0° |
| 2026-05-08 23:07 | 14.65609 | -17.07268 | 284 ft | 0 kts | 359° |
| 2026-05-08 23:07 | 14.65658 | -17.07269 | 285 ft | 31 kts | 359° |
| 2026-05-08 23:08 | 14.66086 | -17.07274 | 294 ft | 90 kts | 359° |
| 2026-05-08 23:08 | 14.66872 | -17.07281 | 304 ft | 137 kts | 359° |
| 2026-05-08 23:08 | 14.67955 | -17.07297 | 457 ft | 163 kts | 359° |
| 2026-05-08 23:08 | 14.69062 | -17.07305 | 1103 ft | 156 kts | 359° |
| 2026-05-08 23:09 | 14.70148 | -17.07308 | 1679 ft | 157 kts | 359° |
| 2026-05-08 23:09 | 14.71261 | -17.07312 | 2255 ft | 162 kts | 359° |
| 2026-05-08 23:09 | 14.72417 | -17.07315 | 2792 ft | 173 kts | 359° |
| 2026-05-08 23:09 | 14.73654 | -17.07319 | 3345 ft | 182 kts | 359° |
| 2026-05-08 23:10 | 14.74941 | -17.07324 | 3959 ft | 188 kts | 359° |
| 2026-05-08 23:10 | 14.76262 | -17.07330 | 4620 ft | 191 kts | 359° |
| 2026-05-08 23:10 | 14.77604 | -17.07337 | 5298 ft | 194 kts | 359° |
| 2026-05-08 23:10 | 14.78965 | -17.07344 | 5980 ft | 197 kts | 359° |
| 2026-05-08 23:11 | 14.80397 | -17.07283 | 6444 ft | 215 kts | 16° |
| 2026-05-08 23:11 | 14.81600 | -17.06363 | 7080 ft | 224 kts | 58° |
| 2026-05-08 23:11 | 14.81900 | -17.04805 | 7764 ft | 228 kts | 97° |
| 2026-05-08 23:11 | 14.81767 | -17.03116 | 8297 ft | 246 kts | 94° |
| 2026-05-08 23:12 | 14.81656 | -17.01291 | 8778 ft | 264 kts | 93° |
| 2026-05-08 23:12 | 14.81566 | -16.99584 | 9241 ft | 277 kts | 93° |